Time;durP1;ratioP1;P1;durP2;ratioP2;P2;SDS_P1;SDS_P2;PMS_P1;PMS_P2;Temp;Humidity;BMP_temperature;BMP_pressure;BME280_temperature;BME280_humidity;BME280_pressure;Samples;Min_cycle;Max_cycle;Signal;HPM_P1;HPM_P2
2024/03/15 00:02:17;;;;;;;10.33;8.83;;;11.20;99.90;;;;;;5114242;28;20444;-63
2024/03/15 00:04:44;;;;;;;15.70;9.77;;;11.20;99.90;;;;;;5114306;28;21011;-62
2024/03/15 00:07:11;;;;;;;13.83;9.10;;;11.30;99.90;;;;;;5114411;28;20800;-62
2024/03/15 00:09:37;;;;;;;11.20;10.00;;;11.30;99.90;;;;;;5114331;28;20549;-63
2024/03/15 00:12:04;;;;;;;12.13;10.57;;;11.30;99.90;;;;;;5114204;28;20447;-63
2024/03/15 00:14:31;;;;;;;11.83;10.23;;;11.30;99.90;;;;;;5114159;28;20438;-63
2024/03/15 00:16:58;;;;;;;12.50;10.27;;;11.30;99.90;;;;;;5113807;28;21043;-63
2024/03/15 00:19:24;;;;;;;11.77;10.57;;;11.30;99.90;;;;;;5114225;28;20878;-63
2024/03/15 00:21:50;;;;;;;12.80;10.30;;;11.20;99.90;;;;;;5114014;28;20564;-63
2024/03/15 00:24:17;;;;;;;12.30;10.97;;;11.20;99.90;;;;;;5113978;28;20196;-63
2024/03/15 00:26:44;;;;;;;13.73;11.00;;;11.10;99.90;;;;;;5113975;28;20866;-63
2024/03/15 00:29:11;;;;;;;13.53;11.77;;;11.00;99.90;;;;;;5113734;28;20452;-63
2024/03/15 00:31:39;;;;;;;13.30;10.80;;;11.10;99.90;;;;;;5114066;28;20886;-63
2024/03/15 00:34:05;;;;;;;12.27;10.93;;;11.10;99.90;;;;;;5113851;28;20444;-63
2024/03/15 00:36:32;;;;;;;15.07;12.13;;;11.10;99.90;;;;;;5113841;28;20450;-63
2024/03/15 00:38:59;;;;;;;12.83;11.07;;;11.20;99.90;;;;;;5113733;28;20473;-63
2024/03/15 00:41:26;;;;;;;13.77;12.37;;;11.10;99.90;;;;;;5113583;28;20564;-63
2024/03/15 00:43:53;;;;;;;12.60;10.73;;;11.10;99.90;;;;;;5113561;28;20442;-63
2024/03/15 00:46:19;;;;;;;13.63;12.23;;;11.10;99.90;;;;;;5113377;28;20470;-63
2024/03/15 00:48:45;;;;;;;13.90;12.40;;;11.00;99.90;;;;;;5113578;28;20441;-63
2024/03/15 00:51:12;;;;;;;15.27;12.63;;;11.00;99.90;;;;;;5113401;27;20454;-63
2024/03/15 00:53:39;;;;;;;14.07;11.77;;;11.00;99.90;;;;;;5113432;28;20228;-63
2024/03/15 00:56:06;;;;;;;15.73;11.80;;;11.00;99.90;;;;;;5113319;28;20477;-63
2024/03/15 00:58:33;;;;;;;13.93;12.43;;;11.00;99.90;;;;;;5113244;28;20486;-63
2024/03/15 01:00:59;;;;;;;14.60;12.70;;;10.90;99.90;;;;;;5113317;28;20481;-63
2024/03/15 01:03:26;;;;;;;15.60;12.67;;;10.90;99.90;;;;;;5113263;28;20532;-63
2024/03/15 01:05:53;;;;;;;12.50;11.20;;;10.90;99.90;;;;;;5113085;28;20437;-63
2024/03/15 01:08:19;;;;;;;16.80;13.00;;;11.00;99.90;;;;;;5113136;28;20441;-63
2024/03/15 01:10:46;;;;;;;14.80;12.13;;;10.90;99.90;;;;;;5112967;28;20444;-63
2024/03/15 01:13:13;;;;;;;14.90;12.67;;;11.00;99.90;;;;;;5112873;28;20945;-63
2024/03/15 01:15:39;;;;;;;14.50;12.67;;;11.00;99.90;;;;;;5113125;28;20452;-63
2024/03/15 01:18:07;;;;;;;15.47;12.87;;;11.00;99.90;;;;;;5112991;28;20448;-63
2024/03/15 01:20:34;;;;;;;19.03;12.70;;;11.00;99.90;;;;;;5112900;28;20466;-63
2024/03/15 01:23:02;;;;;;;16.20;14.00;;;10.90;99.90;;;;;;5112885;28;20488;-62
2024/03/15 01:25:29;;;;;;;15.20;13.10;;;10.90;99.90;;;;;;5112706;28;20454;-62
2024/03/15 01:27:56;;;;;;;18.17;13.53;;;10.90;99.90;;;;;;5112982;28;20531;-62
2024/03/15 01:30:23;;;;;;;16.23;14.17;;;10.80;99.90;;;;;;5112260;28;20445;-62
2024/03/15 01:32:50;;;;;;;16.23;13.60;;;10.80;99.90;;;;;;5112750;28;20449;-63
2024/03/15 01:35:17;;;;;;;18.77;12.97;;;10.80;99.90;;;;;;5112724;28;20434;-62
2024/03/15 01:37:43;;;;;;;18.43;13.90;;;10.80;99.90;;;;;;5112606;28;20442;-62
2024/03/15 01:40:11;;;;;;;17.77;14.10;;;10.80;99.90;;;;;;5112331;28;20529;-62
2024/03/15 01:42:38;;;;;;;20.63;14.27;;;10.80;99.90;;;;;;5112636;28;20955;-62
2024/03/15 01:45:06;;;;;;;14.67;12.67;;;10.80;99.90;;;;;;5112501;28;20800;-62
2024/03/15 01:47:33;;;;;;;17.50;15.60;;;10.80;99.90;;;;;;5112721;28;20442;-62
2024/03/15 01:50:00;;;;;;;17.60;13.80;;;10.80;99.90;;;;;;5095730;28;20454;-63
2024/03/15 01:52:30;;;;;;;15.73;13.70;;;10.70;99.90;;;;;;5112398;28;20448;-63
2024/03/15 01:54:57;;;;;;;19.10;16.33;;;10.70;99.90;;;;;;5112421;28;20442;-62
2024/03/15 01:57:24;;;;;;;18.53;16.27;;;10.70;99.90;;;;;;5112452;28;20536;-62
2024/03/15 01:59:50;;;;;;;19.90;16.33;;;10.70;99.90;;;;;;5112374;28;20438;-62
2024/03/15 02:02:17;;;;;;;19.53;15.40;;;10.70;99.90;;;;;;5112164;28;20484;-62
2024/03/15 02:04:53;;;;;;;23.30;17.47;;;10.80;99.90;;;;;;5112337;28;20438;-63
2024/03/15 02:07:20;;;;;;;19.23;16.30;;;10.70;99.90;;;;;;5112365;28;20824;-63
2024/03/15 02:09:46;;;;;;;23.77;17.90;;;10.60;99.90;;;;;;5112461;28;20533;-63
2024/03/15 02:12:13;;;;;;;27.43;17.77;;;10.70;99.90;;;;;;5112326;28;20536;-63
2024/03/15 02:14:40;;;;;;;21.10;16.87;;;10.70;99.90;;;;;;5112366;28;20872;-66
2024/03/15 02:17:06;;;;;;;24.40;18.83;;;10.80;99.90;;;;;;5112187;28;20476;-62
2024/03/15 02:19:33;;;;;;;19.77;16.77;;;10.70;99.90;;;;;;5112183;28;20529;-62
2024/03/15 02:22:00;;;;;;;23.60;19.13;;;10.70;99.90;;;;;;5112262;28;20568;-62
2024/03/15 02:24:27;;;;;;;22.33;17.50;;;10.70;99.90;;;;;;5112362;28;20846;-62
2024/03/15 02:26:53;;;;;;;23.40;18.37;;;10.60;99.90;;;;;;5112269;28;20445;-62
2024/03/15 02:29:20;;;;;;;21.03;17.20;;;10.70;99.90;;;;;;5112107;28;20438;-62
2024/03/15 02:31:47;;;;;;;23.70;18.73;;;10.70;99.90;;;;;;5112040;28;20448;-62
2024/03/15 02:34:14;;;;;;;23.87;19.20;;;10.70;99.90;;;;;;5111933;28;20434;-62
2024/03/15 02:36:41;;;;;;;21.23;17.60;;;10.70;99.90;;;;;;5112167;28;20444;-62
2024/03/15 02:39:08;;;;;;;21.97;17.60;;;10.60;99.90;;;;;;5111902;28;20937;-62
2024/03/15 02:41:34;;;;;;;23.40;18.10;;;10.60;99.90;;;;;;5114891;28;20484;-62
2024/03/15 02:44:01;;;;;;;22.40;17.70;;;10.60;99.90;;;;;;5115916;28;20500;-62
2024/03/15 02:46:28;;;;;;;24.77;19.23;;;10.60;99.90;;;;;;5115735;28;20555;-63
2024/03/15 02:48:54;;;;;;;24.80;19.57;;;10.60;99.90;;;;;;5115772;28;20479;-63
2024/03/15 02:51:25;;;;;;;23.83;18.93;;;10.60;99.90;;;;;;5115971;28;20528;-63
2024/03/15 02:53:52;;;;;;;27.07;18.07;;;10.60;99.90;;;;;;5115733;28;20928;-63
2024/03/15 02:56:19;;;;;;;24.33;18.90;;;10.60;99.90;;;;;;5115817;28;21013;-63
2024/03/15 02:58:46;;;;;;;22.00;19.07;;;10.50;99.90;;;;;;5115670;28;20486;-63
2024/03/15 03:01:13;;;;;;;23.57;19.50;;;10.30;99.90;;;;;;5115398;28;20473;-63
2024/03/15 03:03:40;;;;;;;23.10;18.80;;;10.30;99.90;;;;;;5115726;28;20437;-63
2024/03/15 03:06:07;;;;;;;23.23;19.20;;;10.30;99.90;;;;;;5115627;28;20800;-63
2024/03/15 03:08:35;;;;;;;23.13;18.30;;;10.30;99.90;;;;;;5115523;28;20442;-63
2024/03/15 03:11:06;;;;;;;22.20;18.73;;;10.30;99.90;;;;;;5115426;28;20796;-62
2024/03/15 03:13:33;;;;;;;24.13;19.50;;;10.20;99.90;;;;;;5115408;28;20540;-62
2024/03/15 03:16:00;;;;;;;23.73;19.20;;;10.30;99.90;;;;;;5115173;28;20444;-62
2024/03/15 03:18:26;;;;;;;26.37;18.27;;;10.30;99.90;;;;;;5115367;28;20537;-62
2024/03/15 03:20:53;;;;;;;24.77;18.53;;;10.40;99.90;;;;;;5115298;28;20897;-62
2024/03/15 03:23:21;;;;;;;24.03;19.70;;;10.40;99.90;;;;;;5115340;28;20528;-62
2024/03/15 03:25:47;;;;;;;26.43;19.33;;;10.40;99.90;;;;;;5115160;28;20452;-62
2024/03/15 03:28:15;;;;;;;23.23;18.80;;;10.30;99.90;;;;;;5115089;28;20596;-62
2024/03/15 03:30:42;;;;;;;28.40;20.07;;;10.40;99.90;;;;;;5115012;28;20445;-62
2024/03/15 03:33:08;;;;;;;22.70;19.47;;;10.30;99.90;;;;;;5115134;28;20441;-62
2024/03/15 03:35:35;;;;;;;25.73;19.57;;;10.40;99.90;;;;;;5115053;28;20541;-63
2024/03/15 03:38:02;;;;;;;25.47;20.10;;;10.40;99.90;;;;;;5114987;28;20437;-63
2024/03/15 03:40:29;;;;;;;27.20;19.47;;;10.40;99.90;;;;;;5114911;28;20446;-63
2024/03/15 03:42:56;;;;;;;28.63;20.80;;;10.40;99.90;;;;;;5114697;28;20844;-63
2024/03/15 03:45:23;;;;;;;28.13;18.87;;;10.30;99.90;;;;;;5114522;28;20548;-63
2024/03/15 03:47:50;;;;;;;25.57;18.93;;;10.30;99.90;;;;;;5114819;28;20839;-63
2024/03/15 03:50:17;;;;;;;25.53;19.47;;;10.20;99.90;;;;;;5114814;27;20445;-63
2024/03/15 03:52:44;;;;;;;27.30;20.63;;;10.20;99.90;;;;;;5113957;28;20506;-63
2024/03/15 03:55:10;;;;;;;29.70;23.70;;;10.20;99.90;;;;;;5114519;28;20866;-63
2024/03/15 03:57:37;;;;;;;25.73;20.13;;;10.00;99.90;;;;;;5114501;28;20457;-63
2024/03/15 04:00:05;;;;;;;26.30;18.87;;;10.10;99.90;;;;;;5114509;28;20448;-63
2024/03/15 04:02:32;;;;;;;24.40;19.20;;;10.20;99.90;;;;;;5114504;28;20477;-63
2024/03/15 04:04:59;;;;;;;25.73;19.03;;;10.20;99.90;;;;;;5114280;28;21024;-63
2024/03/15 04:07:28;;;;;;;27.43;20.10;;;10.20;99.90;;;;;;5114456;28;20449;-63
2024/03/15 04:09:55;;;;;;;24.23;19.47;;;10.30;99.90;;;;;;5114363;28;20445;-63
2024/03/15 04:12:22;;;;;;;22.13;19.67;;;10.30;99.90;;;;;;5114058;28;20444;-63
2024/03/15 04:14:49;;;;;;;24.30;19.73;;;10.30;99.90;;;;;;5114367;28;20438;-63
2024/03/15 04:17:16;;;;;;;28.30;20.20;;;10.30;99.90;;;;;;5114247;28;20456;-63
2024/03/15 04:19:43;;;;;;;27.03;19.77;;;10.30;99.90;;;;;;5114161;28;20469;-63
2024/03/15 04:22:11;;;;;;;33.00;21.30;;;10.40;99.90;;;;;;5113917;28;20523;-63
2024/03/15 04:24:38;;;;;;;23.83;19.17;;;10.40;99.90;;;;;;5113890;28;20442;-63
2024/03/15 04:27:08;;;;;;;24.10;19.83;;;10.30;99.90;;;;;;5114168;28;20452;-63
2024/03/15 04:29:35;;;;;;;27.07;21.13;;;10.30;99.90;;;;;;5114012;28;20442;-63
2024/03/15 04:32:02;;;;;;;27.23;20.90;;;10.30;99.90;;;;;;5113819;28;20442;-63
2024/03/15 04:34:30;;;;;;;29.20;21.13;;;10.20;99.90;;;;;;5113811;28;20438;-63
2024/03/15 04:36:57;;;;;;;26.43;20.57;;;10.10;99.90;;;;;;5113700;28;20528;-63
2024/03/15 04:39:24;;;;;;;27.20;21.27;;;10.00;99.90;;;;;;5113633;28;20510;-63
2024/03/15 04:41:50;;;;;;;27.37;20.63;;;9.90;99.90;;;;;;5113687;28;20473;-63
2024/03/15 04:44:17;;;;;;;29.40;22.50;;;10.00;99.90;;;;;;5113767;28;20486;-63
2024/03/15 04:46:44;;;;;;;25.27;21.13;;;10.00;99.90;;;;;;5113436;28;20561;-63
2024/03/15 04:49:10;;;;;;;27.27;21.00;;;10.10;99.90;;;;;;5113498;28;20444;-63
2024/03/15 04:51:37;;;;;;;28.17;20.03;;;10.10;99.90;;;;;;5113430;28;20879;-63
2024/03/15 04:54:04;;;;;;;26.97;21.07;;;10.10;99.90;;;;;;5113275;28;20862;-63
2024/03/15 04:56:33;;;;;;;28.03;20.10;;;10.10;99.90;;;;;;5113572;27;20855;-63
2024/03/15 04:58:59;;;;;;;24.33;19.23;;;10.20;99.90;;;;;;5113403;28;20823;-63
2024/03/15 05:01:26;;;;;;;29.00;20.90;;;10.20;99.90;;;;;;5113279;28;20469;-63
2024/03/15 05:03:53;;;;;;;25.40;20.43;;;10.20;99.90;;;;;;5112311;28;20532;-63
2024/03/15 05:06:19;;;;;;;25.50;19.70;;;10.20;99.90;;;;;;5113052;28;20441;-63
2024/03/15 05:08:46;;;;;;;25.27;20.20;;;10.20;99.90;;;;;;5113399;28;20441;-63
2024/03/15 05:11:15;;;;;;;26.90;20.87;;;10.30;99.90;;;;;;5113158;28;20448;-63
2024/03/15 05:13:42;;;;;;;25.90;20.10;;;10.30;99.90;;;;;;5113207;28;21000;-63
2024/03/15 05:16:12;;;;;;;29.77;20.63;;;10.30;99.90;;;;;;5112972;28;20491;-63
2024/03/15 05:18:40;;;;;;;27.90;20.23;;;10.30;99.90;;;;;;5112980;28;20450;-63
2024/03/15 05:21:07;;;;;;;25.87;19.03;;;10.30;99.90;;;;;;5112795;28;20869;-63
2024/03/15 05:23:34;;;;;;;26.33;20.30;;;10.30;99.90;;;;;;5113027;28;20520;-63
2024/03/15 05:26:01;;;;;;;26.80;19.27;;;10.30;99.90;;;;;;5112811;28;20805;-63
2024/03/15 05:28:28;;;;;;;20.90;17.87;;;10.30;99.90;;;;;;5112781;28;20449;-64
2024/03/15 05:30:56;;;;;;;23.37;18.43;;;10.30;99.90;;;;;;5112738;28;20442;-63
2024/03/15 05:33:22;;;;;;;24.80;18.93;;;10.40;99.90;;;;;;5112614;28;20456;-63
2024/03/15 05:35:51;;;;;;;24.30;18.90;;;10.40;99.90;;;;;;5112603;28;20532;-63
2024/03/15 05:38:18;;;;;;;25.50;19.87;;;10.30;99.90;;;;;;5112752;28;20448;-63
2024/03/15 05:40:44;;;;;;;24.13;19.67;;;10.30;99.90;;;;;;5112518;28;20509;-64
2024/03/15 05:43:11;;;;;;;26.67;19.80;;;10.30;99.90;;;;;;5112465;28;20560;-63
2024/03/15 05:45:38;;;;;;;28.13;20.30;;;10.30;99.90;;;;;;5112374;28;20562;-64
2024/03/15 05:48:05;;;;;;;25.83;18.93;;;10.20;99.90;;;;;;5112312;28;20441;-63
2024/03/15 05:50:32;;;;;;;24.90;18.50;;;10.30;99.90;;;;;;5112597;28;20798;-63
2024/03/15 05:53:00;;;;;;;26.70;19.97;;;10.30;99.90;;;;;;5112354;28;20467;-63
2024/03/15 05:55:27;;;;;;;24.70;19.43;;;10.40;99.90;;;;;;5112371;28;20441;-63
2024/03/15 05:57:54;;;;;;;25.43;20.00;;;10.40;99.90;;;;;;5112460;28;20473;-64
2024/03/15 06:00:21;;;;;;;26.80;19.57;;;10.40;99.90;;;;;;5112203;28;20528;-63
2024/03/15 06:02:48;;;;;;;24.57;19.63;;;10.50;99.90;;;;;;5112163;28;20482;-63
2024/03/15 06:05:18;;;;;;;25.77;19.23;;;10.50;99.90;;;;;;5112499;28;20460;-63
2024/03/15 06:07:44;;;;;;;24.67;19.43;;;10.50;99.90;;;;;;5112582;28;20442;-63
2024/03/15 06:10:13;;;;;;;25.67;19.50;;;10.50;99.90;;;;;;5112223;28;20853;-63
2024/03/15 06:12:40;;;;;;;24.27;18.00;;;10.50;99.90;;;;;;5112220;28;20438;-63
2024/03/15 06:15:09;;;;;;;26.70;19.63;;;10.50;99.90;;;;;;5112451;28;20503;-64
2024/03/15 06:17:36;;;;;;;29.87;18.60;;;10.60;99.90;;;;;;5116397;28;20468;-63
2024/03/15 06:20:04;;;;;;;24.73;16.40;;;10.60;99.90;;;;;;5116446;28;20451;-63
2024/03/15 06:22:31;;;;;;;29.77;22.50;;;10.70;99.90;;;;;;5116272;28;20484;-63
2024/03/15 06:24:59;;;;;;;29.00;20.77;;;10.90;99.90;;;;;;5116330;28;20438;-63
2024/03/15 06:27:26;;;;;;;26.40;19.70;;;10.90;99.90;;;;;;5116092;28;20944;-63
2024/03/15 06:29:55;;;;;;;24.53;18.90;;;11.00;99.90;;;;;;5116106;28;20980;-63
2024/03/15 06:32:26;;;;;;;23.97;17.13;;;11.10;99.90;;;;;;5115979;28;20949;-63
2024/03/15 06:34:53;;;;;;;22.57;17.20;;;11.10;99.90;;;;;;5116276;28;20808;-63
2024/03/15 06:37:22;;;;;;;25.70;17.57;;;11.20;99.90;;;;;;5116059;28;20442;-63
2024/03/15 06:40:03;;;;;;;20.50;17.00;;;11.30;99.90;;;;;;5115898;28;20438;-63
2024/03/15 06:42:48;;;;;;;20.73;16.50;;;11.50;99.90;;;;;;5116209;28;20502;-63
2024/03/15 06:45:23;;;;;;;22.87;17.20;;;11.60;99.90;;;;;;5116066;28;20451;-63
2024/03/15 06:47:52;;;;;;;25.33;15.80;;;11.80;99.90;;;;;;5115855;27;20441;-63
2024/03/15 06:50:30;;;;;;;31.57;16.77;;;12.10;99.90;;;;;;5115664;28;20525;-63
2024/03/15 06:52:56;;;;;;;19.93;17.27;;;12.10;99.90;;;;;;5116143;27;20441;-63
2024/03/15 06:55:23;;;;;;;22.97;16.27;;;12.20;99.90;;;;;;5115780;28;20478;-63
2024/03/15 06:57:50;;;;;;;19.73;16.37;;;12.30;99.90;;;;;;5115529;28;20282;-63
2024/03/15 07:00:17;;;;;;;21.77;16.90;;;12.40;99.90;;;;;;5115531;28;20797;-63
2024/03/15 07:02:44;;;;;;;20.30;15.90;;;12.60;99.90;;;;;;5115434;28;20477;-63
2024/03/15 07:05:11;;;;;;;19.73;15.97;;;12.70;99.90;;;;;;5115258;28;20448;-63
2024/03/15 07:07:38;;;;;;;23.30;16.70;;;12.70;99.90;;;;;;5115465;28;20448;-63
2024/03/15 07:10:05;;;;;;;18.50;15.37;;;12.90;99.90;;;;;;5115479;28;21004;-63
2024/03/15 07:12:32;;;;;;;18.70;15.57;;;13.10;99.90;;;;;;5115451;28;20447;-63
2024/03/15 07:14:59;;;;;;;19.03;14.37;;;13.30;99.90;;;;;;5115360;28;20465;-63
2024/03/15 07:17:25;;;;;;;22.13;14.47;;;13.40;99.90;;;;;;5114981;28;20481;-63
2024/03/15 07:19:54;;;;;;;16.20;13.43;;;13.50;99.90;;;;;;5115020;28;20441;-63
2024/03/15 07:22:21;;;;;;;20.20;16.30;;;13.60;99.90;;;;;;5115055;28;20465;-62
2024/03/15 07:24:51;;;;;;;17.13;14.33;;;13.60;99.90;;;;;;5115352;28;21008;-63
2024/03/15 07:27:18;;;;;;;20.10;15.17;;;13.70;99.90;;;;;;5113934;28;20446;-63
2024/03/15 07:29:45;;;;;;;16.73;14.63;;;13.60;99.90;;;;;;5114993;28;20537;-63
2024/03/15 07:32:12;;;;;;;16.80;13.40;;;13.50;99.90;;;;;;5114704;28;20448;-62
2024/03/15 07:34:39;;;;;;;18.80;15.10;;;13.60;99.90;;;;;;5114849;28;20442;-63
2024/03/15 07:37:06;;;;;;;16.23;13.50;;;13.60;99.90;;;;;;5115003;27;20449;-63
2024/03/15 07:39:32;;;;;;;14.90;12.97;;;13.50;99.90;;;;;;5114773;28;20442;-63
2024/03/15 07:42:00;;;;;;;23.77;14.67;;;13.60;99.90;;;;;;5114697;28;20745;-63
2024/03/15 07:44:27;;;;;;;18.50;14.50;;;13.60;99.90;;;;;;5114701;28;20441;-63
2024/03/15 07:46:56;;;;;;;17.20;13.37;;;13.50;99.90;;;;;;5114461;28;20473;-64
2024/03/15 07:49:23;;;;;;;16.47;12.93;;;13.40;99.90;;;;;;5114757;28;20443;-64
2024/03/15 07:51:50;;;;;;;16.70;13.57;;;13.30;99.90;;;;;;5114716;28;20445;-64
2024/03/15 07:54:18;;;;;;;16.50;14.37;;;13.30;99.90;;;;;;5114565;28;20523;-63
2024/03/15 07:56:44;;;;;;;19.40;14.27;;;13.30;99.90;;;;;;5114516;28;20850;-64
2024/03/15 07:59:12;;;;;;;17.13;13.90;;;13.30;99.90;;;;;;5114433;28;20448;-64
2024/03/15 08:01:39;;;;;;;24.47;14.07;;;13.20;99.90;;;;;;5114486;28;20529;-64
2024/03/15 08:04:08;;;;;;;18.97;14.03;;;13.20;99.90;;;;;;5114365;28;20489;-64
2024/03/15 08:06:35;;;;;;;17.40;13.77;;;13.20;99.90;;;;;;5114309;28;20528;-64
2024/03/15 08:09:04;;;;;;;15.53;13.87;;;13.30;99.90;;;;;;5114168;27;20442;-64
2024/03/15 08:11:33;;;;;;;14.93;12.77;;;13.30;99.90;;;;;;5114049;28;20469;-63
2024/03/15 08:14:02;;;;;;;22.30;13.80;;;13.50;99.90;;;;;;5114192;28;20937;-63
2024/03/15 08:16:33;;;;;;;17.90;12.93;;;13.60;99.90;;;;;;5114130;28;20437;-63
2024/03/15 08:19:00;;;;;;;15.93;12.43;;;13.70;99.90;;;;;;5114028;28;20453;-64
2024/03/15 08:21:27;;;;;;;14.90;11.50;;;13.90;99.90;;;;;;5133515;27;20435;-64
2024/03/15 08:23:54;;;;;;;18.83;12.30;;;14.00;99.90;;;;;;5130473;27;20495;-64
2024/03/15 08:26:21;;;;;;;15.10;12.40;;;14.00;99.90;;;;;;5126992;27;20447;-64
2024/03/15 08:28:49;;;;;;;15.70;12.60;;;14.20;99.90;;;;;;5129840;27;20806;-64
2024/03/15 08:31:16;;;;;;;14.43;12.10;;;14.30;99.90;;;;;;5119480;27;20935;-64
2024/03/15 08:33:44;;;;;;;17.70;13.67;;;14.40;99.90;;;;;;5116991;27;20479;-64
2024/03/15 08:36:12;;;;;;;15.60;12.60;;;14.50;99.90;;;;;;5114567;27;20496;-64
2024/03/15 08:38:39;;;;;;;14.90;12.63;;;14.50;99.90;;;;;;5116626;27;20441;-64
2024/03/15 08:41:06;;;;;;;14.63;12.13;;;14.60;99.90;;;;;;5116490;27;20838;-64
2024/03/15 08:43:33;;;;;;;14.70;11.90;;;14.70;99.90;;;;;;5116769;27;20972;-65
2024/03/15 08:46:00;;;;;;;16.80;12.40;;;14.70;99.90;;;;;;5116517;27;20545;-64
2024/03/15 08:48:30;;;;;;;14.87;11.60;;;14.80;99.90;;;;;;5116548;27;20530;-64
2024/03/15 08:50:56;;;;;;;15.87;14.33;;;14.80;99.90;;;;;;5117056;27;20439;-64
2024/03/15 08:53:24;;;;;;;14.90;11.00;;;14.80;99.90;;;;;;5116347;27;20498;-64
2024/03/15 08:55:51;;;;;;;12.00;10.80;;;14.80;99.90;;;;;;5133642;27;20440;-64
2024/03/15 08:58:17;;;;;;;14.13;11.17;;;14.90;99.90;;;;;;5123704;27;20444;-64
2024/03/15 09:00:44;;;;;;;13.73;11.50;;;15.00;99.90;;;;;;5125974;27;20852;-64
2024/03/15 09:03:11;;;;;;;12.60;10.77;;;15.00;99.90;;;;;;5127493;27;20478;-64
2024/03/15 09:05:38;;;;;;;12.97;11.60;;;15.20;99.90;;;;;;5126216;27;20433;-64
2024/03/15 09:08:06;;;;;;;13.40;10.90;;;15.30;99.90;;;;;;5116723;27;20436;-64
2024/03/15 09:10:33;;;;;;;12.90;10.90;;;15.40;99.90;;;;;;5111661;27;20455;-65
2024/03/15 09:12:59;;;;;;;15.33;10.97;;;15.50;99.90;;;;;;5116056;27;20483;-65
2024/03/15 09:15:27;;;;;;;10.83;9.73;;;15.50;99.90;;;;;;5116109;27;20448;-65
2024/03/15 09:17:58;;;;;;;10.70;9.53;;;15.60;99.90;;;;;;5113475;27;20436;-65
2024/03/15 09:20:33;;;;;;;10.60;8.70;;;15.70;99.90;;;;;;5116713;27;20438;-64
2024/03/15 09:23:01;;;;;;;11.33;9.17;;;15.90;99.90;;;;;;5115479;27;20521;-64
2024/03/15 09:25:29;;;;;;;10.23;9.23;;;16.00;99.90;;;;;;5116154;27;20443;-65
2024/03/15 09:27:57;;;;;;;10.13;9.10;;;16.30;99.90;;;;;;5115960;27;20444;-65
2024/03/15 09:30:29;;;;;;;12.47;10.20;;;16.50;99.90;;;;;;5115816;27;20436;-65
2024/03/15 09:32:56;;;;;;;10.43;8.90;;;16.70;99.90;;;;;;5111890;27;20451;-64
2024/03/15 09:35:23;;;;;;;10.43;9.33;;;16.80;99.90;;;;;;5114812;27;20450;-64
2024/03/15 09:37:50;;;;;;;10.37;9.27;;;16.80;99.90;;;;;;5115820;27;20520;-64
2024/03/15 09:40:18;;;;;;;11.40;9.00;;;16.80;99.90;;;;;;5115704;27;20546;-63
2024/03/15 09:42:46;;;;;;;10.40;9.30;;;16.70;99.90;;;;;;5116070;27;20501;-64
2024/03/15 09:45:13;;;;;;;10.17;8.23;;;16.70;99.90;;;;;;5115189;27;20445;-64
2024/03/15 09:47:41;;;;;;;10.27;8.97;;;16.70;99.90;;;;;;5115525;27;20439;-64
2024/03/15 09:50:11;;;;;;;10.83;7.73;;;16.70;99.90;;;;;;5115094;28;20449;-64
2024/03/15 09:52:38;;;;;;;8.50;7.70;;;16.80;99.90;;;;;;5116331;27;20441;-64
2024/03/15 09:55:05;;;;;;;8.70;7.87;;;16.80;99.90;;;;;;5115488;27;20867;-64
2024/03/15 09:57:31;;;;;;;8.30;7.50;;;16.90;99.90;;;;;;5115272;27;20436;-64
2024/03/15 09:59:59;;;;;;;11.80;9.10;;;17.00;99.90;;;;;;5115243;28;20441;-64
2024/03/15 10:02:26;;;;;;;10.73;9.53;;;16.90;99.90;;;;;;5115536;27;20437;-64
2024/03/15 10:04:53;;;;;;;9.40;8.40;;;16.80;99.90;;;;;;5102096;28;20870;-65
2024/03/15 10:07:21;;;;;;;8.70;7.90;;;16.80;99.90;;;;;;5115978;28;20440;-65
2024/03/15 10:09:49;;;;;;;10.60;8.70;;;16.90;99.90;;;;;;5115618;28;20445;-64
2024/03/15 10:12:15;;;;;;;9.73;8.73;;;17.00;99.90;;;;;;5115303;28;20452;-65
2024/03/15 10:14:42;;;;;;;8.90;8.00;;;17.10;99.90;;;;;;5114927;28;20463;-64
2024/03/15 10:17:11;;;;;;;8.87;7.97;;;17.20;99.90;;;;;;5115374;28;20524;-64
2024/03/15 10:19:38;;;;;;;9.70;8.30;;;17.40;99.90;;;;;;5114855;28;20938;-64
2024/03/15 10:22:07;;;;;;;9.63;8.10;;;17.70;99.90;;;;;;5114956;28;20849;-65
2024/03/15 10:24:34;;;;;;;9.53;8.60;;;17.90;99.90;;;;;;5115095;28;20555;-65
2024/03/15 10:27:00;;;;;;;8.37;7.57;;;17.90;99.90;;;;;;5114876;28;20464;-64
2024/03/15 10:29:27;;;;;;;9.57;8.67;;;18.10;99.90;;;;;;5114924;28;20949;-65
2024/03/15 10:31:54;;;;;;;9.63;8.73;;;17.80;99.90;;;;;;5115274;28;20889;-64
2024/03/15 10:34:20;;;;;;;8.73;7.83;;;17.70;99.90;;;;;;5112368;28;20536;-66
2024/03/15 10:36:48;;;;;;;8.70;7.80;;;17.80;99.90;;;;;;5115000;28;20449;-64
2024/03/15 10:39:15;;;;;;;8.57;7.00;;;17.90;99.90;;;;;;5115462;28;20441;-64
2024/03/15 10:41:44;;;;;;;8.40;7.60;;;18.00;99.90;;;;;;5114848;28;20849;-64
2024/03/15 10:44:11;;;;;;;8.97;8.17;;;17.80;99.90;;;;;;5115597;28;20486;-64
2024/03/15 10:46:38;;;;;;;8.90;7.40;;;17.60;99.90;;;;;;5115335;28;20479;-65
2024/03/15 10:49:04;;;;;;;8.90;8.03;;;17.80;99.90;;;;;;5115358;28;20497;-64
2024/03/15 10:51:32;;;;;;;8.67;7.87;;;17.90;99.90;;;;;;5115268;28;20557;-63
2024/03/15 10:53:59;;;;;;;7.60;7.00;;;18.00;99.90;;;;;;5115519;28;20539;-64
2024/03/15 10:56:26;;;;;;;7.53;6.83;;;18.10;99.90;;;;;;5114958;28;20527;-64
2024/03/15 10:58:53;;;;;;;8.10;6.93;;;18.10;99.90;;;;;;5115022;28;20444;-64
2024/03/15 11:01:21;;;;;;;7.80;6.97;;;18.10;99.90;;;;;;5115170;27;20468;-65
2024/03/15 11:03:48;;;;;;;8.63;7.40;;;18.10;99.90;;;;;;5118835;27;20555;-64
2024/03/15 11:06:15;;;;;;;7.90;6.77;;;18.10;99.90;;;;;;5118522;27;20848;-64
2024/03/15 11:08:41;;;;;;;8.27;7.50;;;18.20;99.90;;;;;;5118309;27;20497;-65
2024/03/15 11:11:10;;;;;;;8.27;7.47;;;18.10;99.90;;;;;;5118681;27;20709;-64
2024/03/15 11:13:37;;;;;;;7.77;6.70;;;18.30;99.90;;;;;;5118814;27;20502;-64
2024/03/15 11:16:16;;;;;;;7.07;6.43;;;18.20;99.90;;;;;;5118380;27;20809;-65
2024/03/15 11:18:43;;;;;;;9.17;7.60;;;18.20;99.90;;;;;;5118376;27;20480;-64
2024/03/15 11:21:18;;;;;;;7.87;7.10;;;18.20;99.90;;;;;;5118209;27;20433;-65
2024/03/15 11:23:45;;;;;;;7.97;7.17;;;18.10;99.90;;;;;;5115813;27;20612;-64
2024/03/15 11:26:11;;;;;;;10.27;7.30;;;18.20;99.90;;;;;;5118288;27;20433;-64
2024/03/15 11:28:38;;;;;;;7.83;6.83;;;18.30;99.90;;;;;;5117996;27;20940;-65
2024/03/15 11:31:05;;;;;;;7.30;6.60;;;18.40;99.90;;;;;;5115393;27;20531;-64
2024/03/15 11:33:32;;;;;;;6.80;6.20;;;18.40;99.90;;;;;;5118007;27;20535;-64
2024/03/15 11:35:58;;;;;;;12.77;7.30;;;18.40;99.90;;;;;;5117949;27;20443;-65
2024/03/15 11:38:26;;;;;;;6.90;6.20;;;18.60;99.90;;;;;;5115373;27;20533;-65
2024/03/15 11:40:52;;;;;;;7.43;6.67;;;18.70;99.90;;;;;;5118037;27;20472;-65
2024/03/15 11:43:19;;;;;;;7.37;6.67;;;18.70;99.90;;;;;;5117670;27;20939;-65
2024/03/15 11:45:47;;;;;;;6.87;6.20;;;18.70;99.90;;;;;;5114976;27;20887;-65
2024/03/15 11:48:16;;;;;;;6.57;5.97;;;18.80;99.90;;;;;;5126281;27;20466;-65
2024/03/15 11:50:44;;;;;;;8.40;7.47;;;18.90;99.90;;;;;;5137852;27;20439;-65
2024/03/15 11:53:12;;;;;;;8.50;7.57;;;18.90;99.90;;;;;;5118128;27;20850;-65
2024/03/15 11:55:39;;;;;;;8.50;7.00;;;18.80;99.90;;;;;;5117824;27;20441;-65
2024/03/15 11:58:05;;;;;;;8.20;6.97;;;18.80;99.90;;;;;;5117588;27;20539;-65
2024/03/15 12:00:37;;;;;;;9.17;7.37;;;18.90;99.90;;;;;;5117485;27;20441;-65
2024/03/15 12:03:06;;;;;;;8.60;7.63;;;18.90;99.90;;;;;;5131895;27;20448;-65
2024/03/15 12:05:36;;;;;;;7.53;6.77;;;18.90;99.90;;;;;;5117573;27;20472;-65
2024/03/15 12:08:03;;;;;;;7.13;6.50;;;19.10;99.90;;;;;;5115002;27;20845;-65
2024/03/15 12:10:30;;;;;;;8.90;7.10;;;19.10;99.90;;;;;;5117708;27;20449;-64
2024/03/15 12:12:56;;;;;;;7.33;6.60;;;19.10;99.90;;;;;;5117086;27;20472;-65
2024/03/15 12:15:27;;;;;;;7.10;6.20;;;19.20;99.90;;;;;;5116544;27;20463;-66
2024/03/15 12:17:56;;;;;;;8.40;7.60;;;19.10;99.90;;;;;;5117138;27;20968;-65
2024/03/15 12:20:22;;;;;;;8.30;7.60;;;19.10;99.90;;;;;;5117069;27;20477;-65
2024/03/15 12:22:49;;;;;;;6.80;6.10;;;19.20;99.90;;;;;;5117109;27;20437;-65
2024/03/15 12:25:16;;;;;;;7.17;6.47;;;19.30;99.90;;;;;;5116992;27;20555;-65
2024/03/15 12:27:43;;;;;;;11.00;7.00;;;19.50;99.90;;;;;;5116760;27;20447;-65
2024/03/15 12:30:10;;;;;;;7.67;6.83;;;19.60;99.90;;;;;;5116982;27;20966;-65
2024/03/15 12:32:37;;;;;;;8.77;6.00;;;19.70;99.90;;;;;;5117043;27;20437;-64